Time;durP1;ratioP1;P1;durP2;ratioP2;P2;SDS_P1;SDS_P2;PMS_P1;PMS_P2;Temp;Humidity;BMP_temperature;BMP_pressure;BME280_temperature;BME280_humidity;BME280_pressure;Samples;Min_cycle;Max_cycle;Signal;HPM_P1;HPM_P2
2021/07/03 00:00:26;;;;;;;8.30;6.07;;;;;;;13.19;90.37;98598.44;5103817;28;20016;-65
2021/07/03 00:02:52;;;;;;;8.13;5.72;;;;;;;13.21;90.43;98601.03;5103783;28;20016;-65
2021/07/03 00:05:17;;;;;;;9.05;6.68;;;;;;;13.09;90.73;98596.97;5103745;28;20020;-65
2021/07/03 00:07:43;;;;;;;7.05;5.55;;;;;;;12.97;89.83;98592.91;5103741;28;20238;-65
2021/07/03 00:10:09;;;;;;;7.90;6.53;;;;;;;13.09;90.46;98594.34;5103801;28;20031;-65
2021/07/03 00:12:34;;;;;;;14.02;6.60;;;;;;;13.07;90.30;98594.38;5103780;28;20315;-65
2021/07/03 00:15:00;;;;;;;10.30;6.38;;;;;;;13.04;90.54;98599.75;5103615;28;20020;-65
2021/07/03 00:17:26;;;;;;;8.27;6.15;;;;;;;13.10;90.14;98603.16;5103680;28;20058;-65
2021/07/03 00:19:51;;;;;;;9.77;5.80;;;;;;;13.08;90.13;98600.53;5103703;28;20027;-65
2021/07/03 00:22:16;;;;;;;13.00;5.95;;;;;;;12.86;89.31;98610.84;5103761;28;20020;-65
2021/07/03 00:24:42;;;;;;;10.60;5.70;;;;;;;12.79;89.30;98611.91;5103734;28;20357;-65
2021/07/03 00:27:08;;;;;;;7.45;5.97;;;;;;;12.72;89.95;98614.78;5104507;28;20019;-65
2021/07/03 00:29:33;;;;;;;9.70;5.75;;;;;;;12.80;89.88;98623.34;5107166;28;20027;-65
2021/07/03 00:31:58;;;;;;;8.27;4.95;;;;;;;12.71;89.86;98616.56;5107647;28;20020;-65
2021/07/03 00:34:24;;;;;;;5.15;4.63;;;;;;;12.65;90.00;98614.09;5107436;28;20026;-65
2021/07/03 00:36:49;;;;;;;10.82;5.40;;;;;;;12.62;90.13;98606.25;5110025;28;20049;-65
2021/07/03 00:39:15;;;;;;;7.68;4.60;;;;;;;12.54;89.99;98608.25;5107291;28;20019;-65
2021/07/03 00:41:40;;;;;;;8.48;4.57;;;;;;;12.49;90.18;98604.84;5107244;28;20023;-65
2021/07/03 00:44:05;;;;;;;6.15;5.20;;;;;;;12.59;90.44;98611.59;5107325;28;20016;-65
2021/07/03 00:46:31;;;;;;;5.75;4.82;;;;;;;12.58;90.03;98615.16;5107233;28;20024;-65
2021/07/03 00:48:57;;;;;;;7.22;6.03;;;;;;;12.52;90.21;98615.34;5107246;28;20337;-65
2021/07/03 00:51:22;;;;;;;9.13;5.15;;;;;;;12.49;90.19;98625.97;5106911;28;20055;-65
2021/07/03 00:53:48;;;;;;;6.60;4.00;;;;;;;12.41;89.80;98627.94;5107092;28;20031;-65
2021/07/03 00:56:13;;;;;;;11.65;6.15;;;;;;;12.48;90.50;98626.88;5107088;28;20016;-65
2021/07/03 00:58:39;;;;;;;11.93;5.43;;;;;;;12.45;90.50;98618.19;5106999;28;20445;-65
2021/07/03 01:01:04;;;;;;;7.75;4.85;;;;;;;12.42;90.41;98626.19;5107232;28;20311;-65
2021/07/03 01:03:29;;;;;;;9.30;5.32;;;;;;;12.33;89.99;98618.50;5106980;28;20020;-65
2021/07/03 01:05:55;;;;;;;9.80;6.25;;;;;;;12.30;90.34;98614.19;5106917;28;20050;-65
2021/07/03 01:08:20;;;;;;;8.55;5.82;;;;;;;12.25;90.41;98626.59;5106828;28;20339;-65
2021/07/03 01:10:46;;;;;;;9.43;6.18;;;;;;;12.40;90.25;98620.94;5106715;28;20044;-65
2021/07/03 01:13:11;;;;;;;7.47;4.78;;;;;;;12.21;89.59;98618.84;5106735;28;20030;-65
2021/07/03 01:15:37;;;;;;;7.80;5.47;;;;;;;12.06;90.07;98622.72;5106651;28;20027;-65
2021/07/03 01:18:03;;;;;;;7.43;5.10;;;;;;;12.15;90.84;98629.56;5106671;28;20019;-65
2021/07/03 01:20:28;;;;;;;6.82;4.95;;;;;;;12.19;90.58;98629.44;5106623;28;20375;-65
2021/07/03 01:22:54;;;;;;;7.50;4.72;;;;;;;12.17;90.20;98633.88;5106569;28;20020;-65
2021/07/03 01:25:19;;;;;;;5.28;4.75;;;;;;;12.26;89.73;98628.38;5106444;28;20028;-65
2021/07/03 01:27:59;;;;;;;7.15;5.38;;;;;;;12.23;89.82;98623.16;5106300;28;20258;-65
2021/07/03 01:30:26;;;;;;;6.57;4.90;;;;;;;12.13;89.36;98626.94;5106204;28;20031;-65
2021/07/03 01:32:51;;;;;;;6.93;4.97;;;;;;;12.10;89.97;98627.03;5106173;28;20023;-65
2021/07/03 01:35:17;;;;;;;8.57;5.13;;;;;;;12.13;90.05;98626.94;5106142;28;20079;-65
2021/07/03 01:37:42;;;;;;;9.07;5.55;;;;;;;12.17;89.80;98623.31;5106114;28;20024;-65
2021/07/03 01:40:08;;;;;;;10.38;4.90;;;;;;;12.02;89.23;98623.69;5106406;28;20079;-65
2021/07/03 01:42:34;;;;;;;7.20;5.32;;;;;;;11.93;89.13;98616.00;5106126;28;20024;-65
2021/07/03 01:44:59;;;;;;;14.90;6.57;;;;;;;11.98;89.73;98608.88;5106143;28;20338;-65
2021/07/03 01:47:24;;;;;;;10.73;6.35;;;;;;;11.93;89.96;98618.66;5106046;28;20091;-65
2021/07/03 01:49:50;;;;;;;12.40;5.85;;;;;;;12.01;89.96;98616.69;5106011;28;20027;-65
2021/07/03 01:52:17;;;;;;;9.63;5.20;;;;;;;12.07;88.88;98611.28;5105780;28;20048;-65
2021/07/03 01:54:43;;;;;;;7.70;5.10;;;;;;;11.94;88.33;98612.50;5105912;28;20024;-65
2021/07/03 01:57:09;;;;;;;8.48;5.32;;;;;;;11.92;89.18;98611.66;5105850;28;20030;-65
2021/07/03 01:59:34;;;;;;;9.38;5.38;;;;;;;11.93;89.76;98610.75;5105764;28;20024;-65
2021/07/03 02:02:03;;;;;;;6.10;4.93;;;;;;;11.95;89.51;98611.59;5105781;28;20030;-65
2021/07/03 02:04:29;;;;;;;6.57;4.43;;;;;;;11.92;89.01;98606.38;5105981;28;20207;-65
2021/07/03 02:06:54;;;;;;;6.72;4.93;;;;;;;11.86;88.86;98609.16;5105592;28;20042;-65
2021/07/03 02:09:20;;;;;;;6.82;5.47;;;;;;;11.83;89.50;98606.59;5105649;28;20024;-65
2021/07/03 02:11:47;;;;;;;6.07;4.88;;;;;;;11.84;89.74;98597.81;5105511;28;20058;-65
2021/07/03 02:14:13;;;;;;;5.07;4.35;;;;;;;11.87;89.40;98602.97;5105587;28;20082;-65
2021/07/03 02:16:39;;;;;;;7.97;4.80;;;;;;;11.85;89.36;98602.16;5105471;28;20024;-65
2021/07/03 02:19:05;;;;;;;8.18;4.75;;;;;;;11.69;89.22;98595.53;5105721;28;20047;-65
2021/07/03 02:21:31;;;;;;;10.15;4.88;;;;;;;11.74;90.07;98588.38;5105440;28;20085;-65
2021/07/03 02:23:56;;;;;;;7.82;4.32;;;;;;;11.61;89.68;98584.25;5105374;28;20027;-65
2021/07/03 02:26:22;;;;;;;5.20;4.55;;;;;;;11.64;89.59;98586.03;5104167;28;20023;-65
2021/07/03 02:28:49;;;;;;;10.85;5.10;;;;;;;11.66;89.85;98587.72;5105408;28;20082;-65
2021/07/03 02:31:15;;;;;;;5.18;4.20;;;;;;;11.77;89.40;98584.81;5105120;28;20087;-65
2021/07/03 02:33:40;;;;;;;5.63;4.10;;;;;;;11.80;89.32;98579.47;5105154;28;20094;-65
2021/07/03 02:36:06;;;;;;;5.97;4.22;;;;;;;11.83;89.07;98580.22;5105142;28;20027;-65
2021/07/03 02:38:31;;;;;;;6.47;4.40;;;;;;;11.63;88.26;98582.50;5107987;28;20069;-65
2021/07/03 02:40:57;;;;;;;13.73;4.53;;;;;;;11.68;88.80;98585.88;5105035;28;20020;-65
2021/07/03 02:43:22;;;;;;;5.28;4.40;;;;;;;11.67;89.53;98584.16;5104922;28;20334;-65
2021/07/03 02:45:47;;;;;;;10.98;4.72;;;;;;;11.58;89.09;98584.34;5104932;28;20024;-65
2021/07/03 02:48:13;;;;;;;5.78;4.03;;;;;;;11.61;89.27;98588.69;5104927;28;20027;-65
2021/07/03 02:50:39;;;;;;;10.70;4.47;;;;;;;11.68;88.96;98585.88;5104069;28;20089;-65
2021/07/03 02:53:04;;;;;;;6.30;4.20;;;;;;;11.67;89.47;98589.44;5104910;28;20028;-65
2021/07/03 02:55:30;;;;;;;6.68;4.00;;;;;;;11.53;89.37;98596.78;5104783;28;20081;-65
2021/07/03 02:57:55;;;;;;;5.90;3.70;;;;;;;11.53;89.96;98591.50;5104895;28;20065;-65
2021/07/03 03:00:21;;;;;;;4.38;3.80;;;;;;;11.49;89.63;98587.22;5104687;28;20087;-65
2021/07/03 03:02:47;;;;;;;5.10;4.18;;;;;;;11.50;89.69;98591.59;5104613;28;20032;-65
2021/07/03 03:05:14;;;;;;;5.57;3.88;;;;;;;11.51;89.10;98595.06;5104613;28;20030;-65
2021/07/03 03:07:40;;;;;;;12.95;4.35;;;;;;;11.55;89.12;98589.69;5104565;28;20024;-65
2021/07/03 03:10:07;;;;;;;4.63;3.70;;;;;;;11.58;88.82;98594.03;5104453;28;20062;-65
2021/07/03 03:12:33;;;;;;;5.22;4.28;;;;;;;11.59;88.76;98601.91;5104516;28;20036;-65
2021/07/03 03:14:59;;;;;;;6.35;4.50;;;;;;;11.47;89.43;98594.28;5105086;28;20046;-65
2021/07/03 03:17:24;;;;;;;14.07;6.68;;;;;;;11.38;89.77;98602.41;5104465;28;20075;-65
2021/07/03 03:19:50;;;;;;;5.13;4.57;;;;;;;11.44;89.08;98597.00;5104389;28;20024;-65
2021/07/03 03:22:15;;;;;;;5.47;4.05;;;;;;;11.30;88.70;98598.22;5104353;28;20065;-65
2021/07/03 03:24:41;;;;;;;5.47;4.57;;;;;;;11.30;88.97;98593.81;5104370;28;20024;-65
2021/07/03 03:27:07;;;;;;;6.65;4.57;;;;;;;11.31;89.58;98592.03;5104321;28;20035;-65
2021/07/03 03:29:32;;;;;;;6.38;4.18;;;;;;;11.26;89.15;98596.56;5104374;28;20315;-65
2021/07/03 03:31:58;;;;;;;9.45;4.95;;;;;;;11.27;89.60;98599.16;5104180;28;20023;-65
2021/07/03 03:34:23;;;;;;;8.20;4.60;;;;;;;11.24;89.63;98591.31;5104219;28;20024;-65
2021/07/03 03:36:48;;;;;;;6.90;4.55;;;;;;;11.24;89.66;98588.69;5104193;28;20345;-65
2021/07/03 03:39:14;;;;;;;7.65;4.80;;;;;;;11.19;89.22;98585.28;5104164;28;20066;-65
2021/07/03 03:41:39;;;;;;;10.70;5.20;;;;;;;11.19;89.72;98585.28;5104092;28;20023;-65
2021/07/03 03:44:05;;;;;;;7.75;5.07;;;;;;;11.30;89.52;98585.91;5104135;28;20318;-65
2021/07/03 03:46:30;;;;;;;6.60;4.78;;;;;;;11.31;89.09;98579.72;5104142;28;20024;-65
2021/07/03 03:48:56;;;;;;;8.93;5.57;;;;;;;11.28;89.36;98584.19;5104075;28;20051;-65
2021/07/03 03:51:22;;;;;;;7.10;5.00;;;;;;;11.15;88.35;98583.63;5103824;28;20046;-66
2021/07/03 03:53:47;;;;;;;6.88;4.47;;;;;;;11.21;89.16;98578.22;5104018;28;20315;-65
2021/07/03 03:56:13;;;;;;;6.75;4.72;;;;;;;11.14;88.94;98581.91;5104050;28;20314;-65
2021/07/03 03:58:38;;;;;;;7.40;4.70;;;;;;;11.13;89.22;98580.16;5104007;28;20020;-65
2021/07/03 04:01:03;;;;;;;8.80;5.07;;;;;;;11.19;89.42;98573.88;5104020;28;20084;-65
2021/07/03 04:03:29;;;;;;;7.80;5.15;;;;;;;11.31;89.43;98573.59;5107084;28;20024;-65
2021/07/03 04:05:54;;;;;;;6.80;5.20;;;;;;;11.37;88.52;98574.31;5108038;28;20083;-65
2021/07/03 04:08:20;;;;;;;7.47;4.07;;;;;;;11.47;88.09;98570.56;5108008;28;20031;-65
2021/07/03 04:10:45;;;;;;;7.10;3.97;;;;;;;11.53;87.42;98570.41;5107874;28;20084;-65
2021/07/03 04:13:11;;;;;;;14.20;3.85;;;;;;;11.48;87.05;98561.75;5107927;28;20030;-65
2021/07/03 04:15:37;;;;;;;5.32;3.65;;;;;;;11.51;88.10;98577.50;5107961;28;20056;-65
2021/07/03 04:18:02;;;;;;;8.25;4.15;;;;;;;11.57;88.62;98577.34;5107850;28;20028;-65
2021/07/03 04:20:28;;;;;;;5.25;3.95;;;;;;;11.68;88.07;98575.34;5107756;28;20020;-65
2021/07/03 04:22:53;;;;;;;4.20;3.30;;;;;;;11.74;87.65;98574.34;5107735;28;20070;-65
2021/07/03 04:25:19;;;;;;;4.05;3.28;;;;;;;11.81;87.29;98571.50;5107685;28;20247;-65
2021/07/03 04:27:46;;;;;;;4.00;3.15;;;;;;;11.88;87.60;98572.22;5107643;28;20083;-65
2021/07/03 04:30:14;;;;;;;3.63;3.25;;;;;;;11.93;87.30;98571.19;5107534;28;20083;-65
2021/07/03 04:32:40;;;;;;;5.85;3.90;;;;;;;12.03;88.14;98572.69;5110163;28;20032;-65
2021/07/03 04:35:07;;;;;;;6.43;4.20;;;;;;;12.32;87.45;98572.78;5107507;28;20023;-65
2021/07/03 04:37:33;;;;;;;4.90;4.15;;;;;;;12.89;86.32;98565.84;5107491;28;20016;-65
2021/07/03 04:39:58;;;;;;;4.20;3.38;;;;;;;13.51;84.57;98571.00;5107430;28;20254;-65
2021/07/03 04:42:24;;;;;;;6.88;3.80;;;;;;;14.11;82.51;98574.28;5107293;28;20027;-65
2021/07/03 04:44:49;;;;;;;4.20;3.53;;;;;;;14.64;80.57;98566.19;5107301;28;20274;-65
2021/07/03 04:47:14;;;;;;;4.90;3.63;;;;;;;15.27;78.01;98570.84;5107268;28;20049;-65
2021/07/03 04:49:40;;;;;;;5.07;3.30;;;;;;;15.72;76.28;98566.38;5107218;28;20057;-65
2021/07/03 04:52:06;;;;;;;3.70;3.13;;;;;;;15.86;76.14;98555.19;5106944;28;20040;-65
2021/07/03 04:54:31;;;;;;;6.32;2.92;;;;;;;15.85;75.58;98559.63;5107118;28;20318;-65
2021/07/03 04:57:11;;;;;;;3.92;3.42;;;;;;;15.93;74.78;98557.53;5107058;28;20031;-65
2021/07/03 04:59:41;;;;;;;10.13;3.83;;;;;;;15.81;75.36;98555.41;5108049;28;20061;-65
2021/07/03 05:02:09;;;;;;;5.05;3.40;;;;;;;15.68;76.26;98551.53;5125269;28;20036;-65
2021/07/03 05:04:36;;;;;;;6.40;3.70;;;;;;;15.50;76.95;98546.09;5127406;28;20027;-65
2021/07/03 05:07:02;;;;;;;11.18;3.85;;;;;;;15.13;77.37;98551.97;5127707;28;20242;-65
2021/07/03 05:09:28;;;;;;;8.18;4.03;;;;;;;14.94;79.54;98551.78;5117842;28;20030;-65
2021/07/03 05:11:53;;;;;;;8.27;4.13;;;;;;;14.81;80.11;98544.38;5106708;28;20052;-65
2021/07/03 05:14:19;;;;;;;6.93;4.20;;;;;;;14.80;80.83;98551.44;5106303;28;20252;-65
2021/07/03 05:16:44;;;;;;;6.70;4.13;;;;;;;14.71;80.49;98543.84;5106733;28;20083;-65
2021/07/03 05:19:10;;;;;;;6.00;4.68;;;;;;;14.68;81.41;98553.72;5123340;28;20023;-65
2021/07/03 05:21:36;;;;;;;7.90;4.25;;;;;;;14.72;81.69;98545.56;5127023;28;20020;-65
2021/07/03 05:24:02;;;;;;;6.53;4.30;;;;;;;14.91;80.66;98556.34;5126988;28;20024;-65
2021/07/03 05:26:27;;;;;;;9.35;4.25;;;;;;;15.11;79.40;98553.81;5126963;28;20076;-65
2021/07/03 05:28:53;;;;;;;7.40;3.97;;;;;;;15.50;80.25;98556.72;5126894;28;20023;-65
2021/07/03 05:31:18;;;;;;;7.15;4.40;;;;;;;15.97;77.55;98569.75;5124962;28;20078;-65
2021/07/03 05:33:43;;;;;;;6.05;4.28;;;;;;;16.45;76.10;98559.72;5126799;28;20029;-66
2021/07/03 05:36:09;;;;;;;10.18;4.05;;;;;;;16.90;76.57;98556.81;5126750;28;20054;-65
2021/07/03 05:38:42;;;;;;;5.63;4.00;;;;;;;17.33;74.41;98558.34;5112682;28;20020;-65
2021/07/03 05:41:13;;;;;;;5.60;4.50;;;;;;;17.91;72.50;98562.59;5095668;28;20238;-65
2021/07/03 05:43:39;;;;;;;6.67;4.60;;;;;;;18.57;70.21;98556.53;5106168;28;20318;-65
2021/07/03 05:46:06;;;;;;;8.77;4.47;;;;;;;18.53;71.02;98557.59;5088993;28;20311;-65
2021/07/03 05:48:33;;;;;;;5.53;4.68;;;;;;;19.20;69.49;98550.34;5085812;28;20024;-65
2021/07/03 05:50:58;;;;;;;8.00;4.22;;;;;;;20.00;65.81;98549.31;5101009;28;20031;-65
2021/07/03 05:53:24;;;;;;;7.03;4.30;;;;;;;19.91;64.44;98538.31;5112867;28;20061;-65
2021/07/03 05:55:49;;;;;;;6.20;3.97;;;;;;;19.81;65.86;98546.00;5110510;28;20027;-65
2021/07/03 05:58:14;;;;;;;5.60;3.90;;;;;;;19.73;66.47;98552.72;5109736;28;20015;-65
2021/07/03 06:00:40;;;;;;;5.60;4.15;;;;;;;20.28;65.23;98549.44;5107463;28;20295;-65
2021/07/03 06:03:05;;;;;;;9.93;4.60;;;;;;;20.80;65.79;98542.69;5105577;28;20314;-65
2021/07/03 06:05:31;;;;;;;4.72;4.22;;;;;;;21.22;63.08;98540.03;5122297;28;20023;-65
2021/07/03 06:07:56;;;;;;;5.65;4.10;;;;;;;21.80;62.87;98537.13;5114114;28;20042;-65
2021/07/03 06:10:22;;;;;;;5.88;4.43;;;;;;;22.23;62.07;98535.13;5105590;28;20267;-65
2021/07/03 06:12:47;;;;;;;5.95;4.50;;;;;;;21.59;62.71;98537.66;5105645;28;20016;-65
2021/07/03 06:15:14;;;;;;;8.70;4.90;;;;;;;21.79;62.40;98539.91;5105564;28;20035;-65
2021/07/03 06:17:39;;;;;;;9.43;4.75;;;;;;;21.61;63.16;98533.06;5088857;28;20307;-65
2021/07/03 06:20:07;;;;;;;8.05;4.53;;;;;;;21.43;65.30;98531.56;5088225;28;20016;-65
2021/07/03 06:22:33;;;;;;;6.95;4.82;;;;;;;21.14;65.52;98528.91;5094162;28;20038;-65
2021/07/03 06:24:58;;;;;;;7.07;4.72;;;;;;;22.04;64.55;98531.97;5099448;28;20331;-65
2021/07/03 06:27:23;;;;;;;9.25;4.80;;;;;;;22.42;63.85;98528.41;5105328;28;20099;-65
2021/07/03 06:29:49;;;;;;;8.77;4.70;;;;;;;22.64;63.05;98519.75;5104829;28;20019;-65
2021/07/03 06:32:14;;;;;;;8.75;5.57;;;;;;;22.53;62.54;98527.72;5105157;28;20091;-65
2021/07/03 06:34:40;;;;;;;7.85;5.15;;;;;;;23.05;62.40;98523.94;5105454;28;20026;-65
2021/07/03 06:37:06;;;;;;;5.78;5.05;;;;;;;22.95;63.57;98530.06;5106599;28;20114;-65
2021/07/03 06:39:32;;;;;;;11.68;6.45;;;;;;;22.83;64.19;98529.13;5104352;28;20041;-65
2021/07/03 06:41:57;;;;;;;7.60;5.18;;;;;;;23.43;62.28;98531.97;5104778;28;20079;-65
2021/07/03 06:44:23;;;;;;;5.88;5.25;;;;;;;23.94;59.68;98533.53;5104089;28;20023;-65
2021/07/03 06:46:48;;;;;;;10.07;5.32;;;;;;;24.29;59.07;98537.09;5104760;28;20024;-65
2021/07/03 06:49:14;;;;;;;6.28;5.30;;;;;;;24.18;58.84;98542.47;5104812;28;20315;-65
2021/07/03 06:51:40;;;;;;;7.28;5.57;;;;;;;24.76;57.45;98534.34;5103796;28;20032;-63
2021/07/03 06:54:05;;;;;;;8.93;5.38;;;;;;;24.47;58.76;98538.41;5104128;28;20076;-63
2021/07/03 06:56:31;;;;;;;7.47;5.47;;;;;;;24.61;59.82;98540.00;5104370;28;20188;-63
2021/07/03 06:58:57;;;;;;;9.27;6.03;;;;;;;24.92;57.30;98539.38;5103002;28;20031;-63
2021/07/03 07:01:22;;;;;;;5.85;4.88;;;;;;;25.64;56.27;98544.31;5103869;28;20023;-63
2021/07/03 07:03:48;;;;;;;7.40;4.88;;;;;;;25.85;55.84;98547.09;5104443;28;20024;-63
2021/07/03 07:06:13;;;;;;;6.65;5.13;;;;;;;26.25;55.57;98542.78;5103852;28;20363;-63
2021/07/03 07:08:39;;;;;;;7.32;5.45;;;;;;;26.59;53.82;98539.81;5103947;28;20025;-63
2021/07/03 07:11:04;;;;;;;6.05;4.88;;;;;;;26.70;51.97;98545.19;5103289;28;20091;-64
2021/07/03 07:13:30;;;;;;;9.65;5.43;;;;;;;26.44;52.26;98546.53;5102390;28;21387;-63
2021/07/03 07:15:55;;;;;;;9.18;4.70;;;;;;;26.42;48.68;98528.75;5096867;28;20020;-64
2021/07/03 07:18:21;;;;;;;6.05;4.38;;;;;;;27.28;48.16;98524.78;5094871;28;20020;-64
2021/07/03 07:20:46;;;;;;;7.70;5.38;;;;;;;27.01;46.40;98530.75;5098587;28;20184;-64
2021/07/03 07:23:12;;;;;;;7.70;4.43;;;;;;;27.41;46.88;98522.69;5106039;28;20028;-64
2021/07/03 07:25:37;;;;;;;11.18;4.75;;;;;;;27.83;46.29;98523.38;5103654;28;20012;-64
2021/07/03 07:28:03;;;;;;;5.55;4.93;;;;;;;27.77;47.99;98523.97;5103452;28;20034;-64
2021/07/03 07:30:28;;;;;;;6.30;4.63;;;;;;;27.51;43.71;98953.53;5104093;28;20087;-64
2021/07/03 07:32:54;;;;;;;10.13;4.72;;;;;;;27.66;43.32;100169.66;5104131;28;20114;-64
2021/07/03 07:35:19;;;;;;;5.40;4.05;;;;;;;27.10;46.12;107866.59;5104161;28;20047;-63
2021/07/03 07:37:48;;;;;;;6.15;5.00;;;;;;;27.44;46.61;109369.81;5102391;28;20341;-63
2021/07/03 07:40:13;;;;;;;6.38;4.32;;;;;;;27.41;44.14;108858.81;5099965;28;20018;-63
2021/07/03 07:42:40;;;;;;;6.80;4.50;;;;;;;27.27;45.10;100938.41;5104279;28;20176;-63
2021/07/03 07:45:06;;;;;;;8.02;4.65;;;;;;;27.20;46.94;101147.00;5104060;28;20024;-63
2021/07/03 07:47:31;;;;;;;4.97;4.20;;;;;;;27.00;45.56;109069.88;5104041;28;20094;-63
2021/07/03 07:49:57;;;;;;;5.10;4.60;;;;;;;27.17;43.03;108798.34;5103905;28;20079;-63
2021/07/03 07:52:23;;;;;;;8.23;4.30;;;;;;;27.81;45.13;99603.03;5103068;28;20043;-63
2021/07/03 07:54:48;;;;;;;7.47;4.57;;;;;;;27.56;45.23;98564.59;5103798;28;20024;-63
2021/07/03 07:57:14;;;;;;;7.45;3.95;;;;;;;28.59;41.33;98567.66;5103545;28;20031;-63
2021/07/03 07:59:39;;;;;;;5.20;4.28;;;;;;;28.46;42.30;98564.41;5104194;28;20039;-64
2021/07/03 08:02:05;;;;;;;6.82;4.03;;;;;;;28.63;42.65;98552.84;5103900;28;20031;-64
2021/07/03 08:04:30;;;;;;;6.30;4.32;;;;;;;28.93;42.72;98555.38;5103954;28;20039;-64
2021/07/03 08:06:55;;;;;;;4.05;3.75;;;;;;;29.17;42.52;98555.75;5103888;28;20020;-64
2021/07/03 08:09:21;;;;;;;5.63;4.22;;;;;;;29.18;42.14;98553.91;5103890;28;20376;-64
2021/07/03 08:11:46;;;;;;;6.15;4.28;;;;;;;29.10;41.83;98546.50;5103813;28;20081;-64
2021/07/03 08:14:12;;;;;;;4.60;4.20;;;;;;;28.90;40.60;98547.53;5103839;28;20027;-64
2021/07/03 08:16:37;;;;;;;5.18;4.13;;;;;;;29.23;40.43;98550.75;5103835;28;20023;-64
2021/07/03 08:19:03;;;;;;;4.78;4.28;;;;;;;28.51;41.00;98543.16;5104044;28;20027;-64
2021/07/03 08:21:28;;;;;;;6.07;4.20;;;;;;;29.42;41.43;98545.28;5104060;28;20028;-64
2021/07/03 08:23:54;;;;;;;5.78;4.50;;;;;;;28.88;41.04;98541.41;5103781;28;20090;-64
2021/07/03 08:26:19;;;;;;;4.38;3.80;;;;;;;28.46;40.45;98544.59;5103770;28;20024;-64
2021/07/03 08:28:44;;;;;;;4.95;4.10;;;;;;;29.88;39.29;98545.19;5103755;28;20024;-64
2021/07/03 08:31:10;;;;;;;5.15;3.75;;;;;;;29.89;36.24;98546.94;5103613;28;20028;-64
2021/07/03 08:33:35;;;;;;;4.75;3.83;;;;;;;29.68;41.76;98538.19;5103705;28;20223;-64
2021/07/03 08:36:01;;;;;;;4.82;4.10;;;;;;;30.05;35.12;98536.25;5103666;28;20028;-64
2021/07/03 08:38:26;;;;;;;4.72;3.53;;;;;;;29.64;37.59;98529.47;5103632;28;20027;-64
2021/07/03 08:40:54;;;;;;;5.32;4.10;;;;;;;30.28;39.75;98535.66;5103876;28;20347;-63
2021/07/03 08:43:19;;;;;;;5.35;3.60;;;;;;;30.47;37.57;98531.94;5103528;28;20245;-63
2021/07/03 08:45:45;;;;;;;4.20;3.80;;;;;;;28.34;41.61;98533.00;5103632;28;20028;-63
2021/07/03 08:48:17;;;;;;;4.28;3.80;;;;;;;27.82;37.86;98522.53;5104642;28;20318;-63
2021/07/03 08:50:42;;;;;;;4.30;3.90;;;;;;;27.97;41.06;98531.97;5107245;28;20057;-63
2021/07/03 08:53:08;;;;;;;6.57;3.95;;;;;;;29.24;38.60;98532.47;5107251;28;20302;-63
2021/07/03 08:55:35;;;;;;;4.15;3.70;;;;;;;29.23;40.72;98528.06;5107184;28;20037;-63
2021/07/03 08:58:04;;;;;;;3.90;3.50;;;;;;;28.70;39.47;98520.63;5107375;28;20042;-63
2021/07/03 09:00:35;;;;;;;4.25;3.67;;;;;;;28.92;38.83;98531.97;5107308;28;20025;-63
2021/07/03 09:03:19;;;;;;;3.78;3.17;;;;;;;29.88;39.52;98523.47;5107073;28;20024;-63
2021/07/03 09:05:56;;;;;;;4.85;3.60;;;;;;;29.61;35.08;98523.47;5107013;28;20024;-63
2021/07/03 09:08:28;;;;;;;3.80;3.30;;;;;;;29.62;33.04;98526.09;5107172;28;20024;-63
2021/07/03 09:11:08;;;;;;;3.50;3.20;;;;;;;29.38;35.95;98522.19;5106776;28;20020;-63
2021/07/03 09:13:39;;;;;;;4.20;3.45;;;;;;;28.51;38.97;98520.66;5106800;28;20032;-63
2021/07/03 09:16:05;;;;;;;3.33;3.03;;;;;;;29.09;36.08;98523.13;5106807;28;20020;-63
2021/07/03 09:18:31;;;;;;;4.07;3.05;;;;;;;30.18;37.13;98517.75;5106687;28;20050;-63
2021/07/03 09:20:59;;;;;;;3.80;2.80;;;;;;;31.12;35.05;98523.28;5106638;28;20016;-63
2021/07/03 09:23:35;;;;;;;4.55;3.35;;;;;;;29.95;34.58;98519.16;5106655;28;20057;-64
2021/07/03 09:26:04;;;;;;;4.13;3.42;;;;;;;29.18;38.94;98521.38;5106583;28;20034;-63
2021/07/03 09:28:32;;;;;;;6.97;3.65;;;;;;;29.24;34.69;98515.38;5106484;28;20095;-64
2021/07/03 09:31:04;;;;;;;3.22;2.92;;;;;;;29.89;34.70;98517.06;5106361;28;20020;-63
2021/07/03 09:33:44;;;;;;;4.43;3.33;;;;;;;29.50;34.67;98529.09;5106480;28;20424;-63
2021/07/03 09:36:13;;;;;;;4.30;3.23;;;;;;;29.76;35.03;98519.25;5106378;28;20028;-63
2021/07/03 09:38:38;;;;;;;4.60;3.30;;;;;;;30.24;35.33;98522.56;5106343;28;20027;-63
2021/07/03 09:41:15;;;;;;;4.07;3.38;;;;;;;30.35;35.64;98503.31;5106237;28;20065;-63
2021/07/03 09:44:03;;;;;;;4.28;3.33;;;;;;;31.10;33.93;98509.03;5106114;28;20024;-63
2021/07/03 09:46:35;;;;;;;4.50;3.10;;;;;;;30.66;32.04;98501.88;5106454;28;20026;-63
2021/07/03 09:49:07;;;;;;;3.80;3.10;;;;;;;29.85;33.62;98515.66;5106362;28;20242;-63
2021/07/03 09:51:47;;;;;;;3.38;2.97;;;;;;;30.55;35.96;98499.41;5105856;28;20099;-63
2021/07/03 09:54:18;;;;;;;4.97;3.30;;;;;;;31.45;32.46;98506.19;5106073;28;20027;-63
2021/07/03 09:56:44;;;;;;;4.25;3.08;;;;;;;30.71;33.53;98504.97;5106078;28;20054;-63
2021/07/03 09:59:11;;;;;;;7.20;3.08;;;;;;;31.73;33.18;98504.91;5105907;28;20030;-63
2021/07/03 10:01:41;;;;;;;3.20;2.90;;;;;;;30.94;33.74;98500.75;5105831;28;20015;-63
2021/07/03 10:04:07;;;;;;;3.97;3.20;;;;;;;30.82;34.33;98496.59;5105811;28;20047;-63
2021/07/03 10:06:41;;;;;;;4.13;2.95;;;;;;;30.91;32.35;98492.94;5105781;28;20020;-63
2021/07/03 10:09:11;;;;;;;4.03;2.85;;;;;;;31.53;37.01;98503.47;5105764;28;20023;-63
2021/07/03 10:11:44;;;;;;;3.58;3.10;;;;;;;31.16;33.80;98497.47;5105662;28;20110;-63
2021/07/03 10:14:11;;;;;;;3.88;2.90;;;;;;;31.04;32.98;98496.06;5105941;28;20020;-63
2021/07/03 10:16:36;;;;;;;3.97;3.05;;;;;;;30.99;35.37;98492.97;5105560;28;20035;-63
2021/07/03 10:19:14;;;;;;;3.20;2.70;;;;;;;31.91;32.75;98497.53;5105515;28;20020;-63
2021/07/03 10:21:40;;;;;;;3.97;2.70;;;;;;;30.29;34.40;98493.94;5105450;28;20207;-63
2021/07/03 10:24:24;;;;;;;4.68;2.90;;;;;;;30.64;31.06;98498.47;5105421;28;20087;-63
2021/07/03 10:26:51;;;;;;;3.30;2.90;;;;;;;29.85;33.97;98489.38;5105389;28;20032;-63
2021/07/03 10:29:17;;;;;;;5.10;3.10;;;;;;;30.85;34.67;98486.25;5105323;28;20065;-63
2021/07/03 10:31:43;;;;;;;4.97;2.80;;;;;;;31.67;34.00;98494.72;5105474;28;20265;-63
2021/07/03 10:34:10;;;;;;;4.10;2.90;;;;;;;31.99;31.98;98489.41;5105221;28;20323;-63
2021/07/03 10:36:35;;;;;;;3.35;2.75;;;;;;;32.07;28.71;98481.22;5105479;28;20310;-63
2021/07/03 10:39:01;;;;;;;3.38;3.00;;;;;;;31.45;34.86;98478.97;5105165;28;20027;-63
2021/07/03 10:41:29;;;;;;;4.60;2.80;;;;;;;31.12;33.33;98474.34;5103879;28;20024;-63
2021/07/03 10:44:06;;;;;;;4.68;3.00;;;;;;;31.54;32.45;98477.97;5105089;28;20338;-63
2021/07/03 10:46:33;;;;;;;3.28;2.83;;;;;;;31.49;31.06;98464.03;5105065;28;20344;-63
2021/07/03 10:49:10;;;;;;;3.75;2.83;;;;;;;31.59;34.81;98464.72;5104959;28;20031;-63
2021/07/03 10:51:43;;;;;;;4.53;2.83;;;;;;;31.20;30.53;98452.66;5104748;28;20065;-63
2021/07/03 10:54:14;;;;;;;4.05;3.00;;;;;;;30.61;34.81;98452.56;5104894;28;20024;-63
2021/07/03 10:56:45;;;;;;;3.10;2.80;;;;;;;30.75;31.21;98452.06;5105124;28;20084;-63
2021/07/03 10:59:13;;;;;;;2.77;2.57;;;;;;;30.83;31.18;98450.22;5104823;28;20027;-63
2021/07/03 11:01:39;;;;;;;3.33;2.70;;;;;;;29.99;32.67;98452.72;5104767;28;20358;-63
2021/07/03 11:04:12;;;;;;;4.32;3.00;;;;;;;29.81;31.41;98451.84;5104677;28;20027;-63
2021/07/03 11:06:48;;;;;;;2.85;2.50;;;;;;;30.42;35.42;98447.34;5104942;28;20176;-63
2021/07/03 11:09:29;;;;;;;5.22;3.00;;;;;;;30.66;31.30;98439.38;5104684;28;20046;-63
2021/07/03 11:11:57;;;;;;;7.03;3.13;;;;;;;30.68;35.81;98440.06;5104101;28;20341;-63
2021/07/03 11:14:24;;;;;;;3.42;2.95;;;;;;;30.99;31.90;98433.16;5104832;28;20065;-63
2021/07/03 11:16:57;;;;;;;5.63;3.20;;;;;;;30.70;35.57;98427.16;5104491;28;20083;-63
2021/07/03 11:19:25;;;;;;;3.78;3.10;;;;;;;30.80;36.41;98427.94;5104451;28;20350;-63
2021/07/03 11:21:51;;;;;;;3.22;2.90;;;;;;;30.59;37.19;98420.13;5104700;28;20335;-63
2021/07/03 11:24:17;;;;;;;5.95;2.90;;;;;;;31.25;35.72;98417.63;5104417;28;20109;-63
2021/07/03 11:26:42;;;;;;;3.05;2.60;;;;;;;31.05;34.01;98416.19;5104410;28;20031;-63
2021/07/03 11:29:08;;;;;;;4.85;2.90;;;;;;;30.14;33.64;98413.13;5104575;28;20027;-63